createdAt,value
2022-09-22T00:03:19.349Z,1020.5
2022-09-22T00:08:25.702Z,1020.6
2022-09-22T00:13:56.216Z,1020.5
2022-09-22T00:18:38.627Z,1020.5
2022-09-22T00:23:34.909Z,1020.5
2022-09-22T00:29:15.347Z,1020.5
2022-09-22T00:33:57.715Z,1020.4
2022-09-22T00:38:54.055Z,1020.4
2022-09-22T00:45:04.589Z,1020.5
2022-09-22T00:49:52.130Z,1020.4
2022-09-22T00:54:58.661Z,1020.4
2022-09-22T01:00:05.104Z,1020.3
2022-09-22T01:05:11.512Z,1020.2
2022-09-22T01:10:45.917Z,1020.2
2022-09-22T01:15:24.245Z,1020.2
2022-09-22T01:20:54.713Z,1020.1
2022-09-22T01:25:27.021Z,1020.0
2022-09-22T01:31:03.541Z,1020.0
2022-09-22T01:35:49.805Z,1020.0
2022-09-22T01:40:56.218Z,1020.0
2022-09-22T01:46:02.610Z,1019.9
2022-09-22T01:51:28.981Z,1019.9
2022-09-22T01:56:29.381Z,1019.9
2022-09-22T02:01:21.878Z,1019.9
2022-09-22T02:06:52.258Z,1019.8
2022-09-22T02:12:36.734Z,1019.7
2022-09-22T02:16:40.972Z,1019.8
2022-09-22T02:21:47.367Z,1019.8
2022-09-22T02:26:43.749Z,1019.7
2022-09-22T02:32:00.328Z,1019.7
2022-09-22T02:37:06.549Z,1019.7
2022-09-22T02:42:13.006Z,1019.6
2022-09-22T02:47:39.442Z,1019.6
2022-09-22T02:52:25.879Z,1019.5
2022-09-22T02:57:36.261Z,1019.5
2022-09-22T03:02:58.729Z,1019.6
2022-09-22T03:07:45.053Z,1019.6
2022-09-22T03:13:14.915Z,1019.5
2022-09-22T03:17:56.807Z,1019.5
2022-09-22T03:23:04.313Z,1019.5
2022-09-22T03:28:10.677Z,1019.5
2022-09-22T03:34:17.160Z,1019.4
2022-09-22T03:39:23.580Z,1019.4
2022-09-22T03:43:29.811Z,1019.4
2022-09-22T03:48:36.179Z,1019.4
2022-09-22T03:53:42.567Z,1019.3
2022-09-22T03:59:09.053Z,1019.3
2022-09-22T04:03:55.331Z,1019.2
2022-09-22T04:09:21.758Z,1019.2
2022-09-22T04:14:08.205Z,1019.2
2022-09-22T04:19:14.528Z,1019.2
2022-09-22T04:24:41.062Z,1019.1
2022-09-22T04:29:17.389Z,1019.2
2022-09-22T04:34:23.914Z,1019.2
2022-09-22T04:39:40.372Z,1019.1
2022-09-22T04:45:06.796Z,1019.2
2022-09-22T04:49:53.164Z,1019.1
2022-09-22T04:55:43.618Z,1019.0
2022-09-22T05:00:05.947Z,1019.0
2022-09-22T05:05:32.429Z,1019.0
2022-09-22T05:10:18.749Z,1019.0
2022-09-22T05:15:25.180Z,1019.1
2022-09-22T05:20:31.663Z,1019.1
2022-09-22T05:25:38.084Z,1019.1
2022-09-22T05:31:04.477Z,1019.1
2022-09-22T05:35:50.812Z,1019.2
2022-09-22T05:40:57.222Z,1019.2
2022-09-22T05:46:03.628Z,1019.2
2022-09-22T05:51:09.973Z,1019.1
2022-09-22T05:56:16.375Z,1019.2
2022-09-22T06:01:46.907Z,1019.3
2022-09-22T06:06:29.100Z,1019.3
2022-09-22T06:11:35.540Z,1019.4
2022-09-22T06:16:42.025Z,1019.4
2022-09-22T06:21:38.267Z,1019.3
2022-09-22T06:26:54.699Z,1019.3
2022-09-22T06:32:01.115Z,1019.3
2022-09-22T06:37:27.588Z,1019.3
2022-09-22T06:42:33.993Z,1019.4
2022-09-22T06:47:24.311Z,1019.4
2022-09-22T06:52:16.656Z,1019.3
2022-09-22T06:57:33.057Z,1019.3
2022-09-22T07:03:03.567Z,1019.3
2022-09-22T07:08:58.171Z,1019.4
2022-09-22T07:13:36.452Z,1019.6
2022-09-22T07:17:58.736Z,1019.6
2022-09-22T07:23:49.234Z,1019.6
2022-09-22T07:28:11.554Z,1019.5
2022-09-22T07:33:18.058Z,1019.6
2022-09-22T07:38:24.382Z,1019.5
2022-09-22T07:43:30.783Z,1019.5
2022-09-22T07:48:37.138Z,1019.4
2022-09-22T07:53:43.646Z,1019.3
2022-09-22T07:58:50.148Z,1019.2
2022-09-22T08:03:56.417Z,1019.2
2022-09-22T08:09:02.815Z,1019.2
2022-09-22T08:14:09.264Z,1019.0
2022-09-22T08:19:39.603Z,1019.0
2022-09-22T08:24:22.494Z,1019.0
2022-09-22T08:29:52.503Z,1019.0
2022-09-22T08:34:34.809Z,1018.9
2022-09-22T08:39:41.736Z,1018.8
2022-09-22T08:44:38.104Z,1018.9
2022-09-22T08:49:54.604Z,1018.8
2022-09-22T08:55:00.976Z,1018.6
2022-09-22T08:59:57.345Z,1018.7
2022-09-22T09:05:12.763Z,1018.7
2022-09-22T09:10:20.127Z,1018.7
2022-09-22T09:15:26.540Z,1018.6
2022-09-22T09:20:57.070Z,1018.4
2022-09-22T09:25:39.492Z,1018.3
2022-09-22T09:30:35.885Z,1018.3
2022-09-22T09:35:51.280Z,1018.3
2022-09-22T09:40:58.694Z,1018.2
2022-09-22T09:46:05.164Z,1018.1
2022-09-22T09:51:11.471Z,1018.0
2022-09-22T09:56:17.883Z,1018.0
2022-09-22T10:01:14.345Z,1018.0
2022-09-22T10:06:19.631Z,1017.9
2022-09-22T10:11:37.007Z,1017.8
2022-09-22T10:17:03.407Z,1017.8
2022-09-22T10:21:53.767Z,1017.7
2022-09-22T10:26:56.165Z,1017.7
2022-09-22T10:32:02.532Z,1017.6
2022-09-22T10:37:10.018Z,1017.5
2022-09-22T10:42:06.500Z,1017.6
2022-09-22T10:47:26.963Z,1017.5
2022-09-22T10:52:19.236Z,1017.3
2022-09-22T10:57:35.658Z,1017.1
2022-09-22T11:02:32.009Z,1017.2
2022-09-22T11:07:48.417Z,1017.0
2022-09-22T11:12:54.808Z,1017.5
2022-09-22T11:18:01.165Z,1017.5
2022-09-22T11:23:07.579Z,1017.4
2022-09-22T11:28:18.008Z,1017.4
2022-09-22T11:33:20.504Z,1017.5
2022-09-22T11:38:26.868Z,1017.5
2022-09-22T11:43:33.280Z,1017.2
2022-09-22T11:48:39.646Z,1016.9
2022-09-22T11:53:36.006Z,1017.0
2022-09-22T11:58:52.431Z,1017.1
2022-09-22T12:03:58.862Z,1016.9
2022-09-22T12:09:05.257Z,1016.9
2022-09-22T12:14:11.653Z,1016.8
2022-09-22T12:19:18.004Z,1016.8
2022-09-22T12:24:24.408Z,1016.5
2022-09-22T12:29:30.802Z,1017.3
2022-09-22T12:34:27.139Z,1017.2
2022-09-22T12:39:47.530Z,1017.2
2022-09-22T12:44:49.924Z,1017.1
2022-09-22T12:49:46.270Z,1017.0
2022-09-22T12:55:02.670Z,1017.1
2022-09-22T13:00:09.179Z,1017.3
2022-09-22T13:05:05.532Z,1017.0
2022-09-22T13:10:21.929Z,1017.1
2022-09-22T13:16:12.525Z,1017.1
2022-09-22T13:21:12.865Z,1016.3
2022-09-22T13:26:22.329Z,1016.2
2022-09-22T13:32:18.095Z,1016.1
2022-09-22T13:39:27.233Z,1016.4
2022-09-22T13:43:20.666Z,1016.0
2022-09-22T13:48:55.286Z,1016.5
2022-09-22T13:52:20.631Z,1016.0
2022-09-22T13:57:07.036Z,1015.9
2022-09-22T14:05:01.835Z,1015.9
2022-09-22T14:07:24.462Z,1015.9
2022-09-22T14:12:50.885Z,1016.0
2022-09-22T14:18:45.387Z,1015.9
2022-09-22T14:22:39.648Z,1015.9
2022-09-22T14:28:06.043Z,1016.3
2022-09-22T14:35:40.738Z,1016.1
2022-09-22T14:38:05.821Z,1016.3
2022-09-22T14:43:05.169Z,1015.6
2022-09-22T14:48:11.678Z,1015.7
2022-09-22T14:53:18.089Z,1015.6
2022-09-22T14:58:26.026Z,1015.5
2022-09-22T15:03:31.419Z,1015.5
2022-09-22T15:08:38.747Z,1015.5
2022-09-22T15:13:45.114Z,1015.6
2022-09-22T15:18:51.498Z,1015.5
2022-09-22T15:23:58.478Z,1015.5
2022-09-22T15:29:04.824Z,1015.4
2022-09-22T15:34:14.763Z,1015.4
2022-09-22T15:39:41.308Z,1015.3
2022-09-22T15:44:27.913Z,1015.2
2022-09-22T15:49:24.310Z,1015.2
2022-09-22T15:55:04.801Z,1015.4
2022-09-22T16:00:01.120Z,1015.2
2022-09-22T16:05:17.556Z,1015.2
2022-09-22T16:09:49.923Z,1015.2
2022-09-22T16:15:06.357Z,1015.1
2022-09-22T16:20:12.768Z,1015.1
2022-09-22T16:25:33.199Z,1015.1
2022-09-22T16:30:26.132Z,1015.1
2022-09-22T16:36:39.071Z,1015.1
2022-09-22T16:41:22.399Z,1015.1
2022-09-22T16:46:32.862Z,1015.0
2022-09-22T16:51:35.213Z,1015.1
2022-09-22T16:56:41.611Z,1015.0
2022-09-22T17:01:48.183Z,1015.0
2022-09-22T17:06:54.580Z,1015.1
2022-09-22T17:12:00.077Z,1015.1
2022-09-22T17:17:07.756Z,1015.1
2022-09-22T17:22:13.170Z,1015.0
2022-09-22T17:27:21.106Z,1015.0
2022-09-22T17:33:27.622Z,1015.0
2022-09-22T17:37:33.868Z,1015.1
2022-09-22T17:42:40.246Z,1015.1
2022-09-22T17:47:46.675Z,1015.1
2022-09-22T17:52:53.059Z,1015.1
2022-09-22T17:57:59.423Z,1015.2
2022-09-22T18:03:29.885Z,1015.1
2022-09-22T18:08:12.250Z,1015.2
2022-09-22T18:13:18.679Z,1015.2
2022-09-22T18:18:25.117Z,1015.0
2022-09-22T18:24:32.855Z,1015.1
2022-09-22T18:29:16.168Z,1015.2
2022-09-22T18:34:22.582Z,1015.2
2022-09-22T18:39:28.942Z,1015.1
2022-09-22T18:44:55.370Z,1015.1
2022-09-22T18:49:41.763Z,1015.1
2022-09-22T18:54:38.145Z,1015.2
2022-09-22T18:59:54.562Z,1015.1
2022-09-22T19:04:50.939Z,1015.2
2022-09-22T19:10:07.350Z,1015.1
2022-09-22T19:15:14.027Z,1015.2
2022-09-22T19:20:40.240Z,1015.1
2022-09-22T19:25:26.593Z,1015.1
2022-09-22T19:30:37.065Z,1015.2
2022-09-22T19:35:39.659Z,1015.1
2022-09-22T19:40:49.913Z,1015.1
2022-09-22T19:45:52.185Z,1015.2
2022-09-22T19:50:58.592Z,1015.1
2022-09-22T19:57:05.246Z,1015.1
2022-09-22T20:01:11.539Z,1015.1
2022-09-22T20:06:07.849Z,1015.0
2022-09-22T20:11:26.828Z,1015.0
2022-09-22T20:16:30.780Z,1014.9
2022-09-22T20:21:41.183Z,1014.9
2022-09-22T20:26:43.653Z,1015.0
2022-09-22T20:31:54.087Z,1014.9
2022-09-22T20:36:56.439Z,1014.9
2022-09-22T20:42:02.831Z,1014.9
2022-09-22T20:47:09.237Z,1014.9
2022-09-22T20:52:15.618Z,1014.9
2022-09-22T20:57:21.979Z,1014.9
2022-09-22T21:02:28.447Z,1014.9
2022-09-22T21:07:54.758Z,1014.8
2022-09-22T21:12:41.143Z,1014.8
2022-09-22T21:17:47.535Z,1014.7
2022-09-22T21:23:18.171Z,1014.7
2022-09-22T21:28:00.594Z,1014.7
2022-09-22T21:32:57.021Z,1014.7
2022-09-22T21:38:13.330Z,1014.7
2022-09-22T21:43:20.829Z,1014.6
2022-09-22T21:48:27.291Z,1014.6
2022-09-22T21:53:53.671Z,1014.5
2022-09-22T21:58:40.023Z,1014.6
2022-09-22T22:04:10.752Z,1014.6
2022-09-22T22:09:12.806Z,1014.5
2022-09-22T22:13:59.288Z,1014.4
2022-09-22T22:19:05.757Z,1014.4
2022-09-22T22:24:12.166Z,1014.4
2022-09-22T22:29:08.498Z,1014.3
2022-09-22T22:35:26.996Z,1014.2
2022-09-22T22:39:31.351Z,1014.1
2022-09-22T22:44:27.631Z,1014.2
2022-09-22T22:49:33.998Z,1014.2
2022-09-22T22:55:10.555Z,1014.1
2022-09-22T22:59:56.877Z,1014.2
2022-09-22T23:05:03.319Z,1014.1
2022-09-22T23:10:09.653Z,1014.2
2022-09-22T23:15:23.637Z,1014.1
2022-09-22T23:20:50.165Z,1014.1
2022-09-22T23:25:32.609Z,1014.2
2022-09-22T23:30:39.179Z,1014.1
2022-09-22T23:36:13.714Z,1013.9
2022-09-22T23:40:52.024Z,1013.9
2022-09-22T23:45:58.533Z,1013.9
2022-09-22T23:50:54.760Z,1013.8
2022-09-22T23:56:11.170Z,1013.6
